createdAt,value
2019-02-27T00:01:53.657Z,32.07
2019-02-27T00:06:55.602Z,30.83
2019-02-27T00:11:57.192Z,28.30
2019-02-27T00:16:58.881Z,30.53
2019-02-27T00:22:00.485Z,28.37
2019-02-27T00:27:02.078Z,30.53
2019-02-27T00:32:04.029Z,32.87
2019-02-27T00:37:05.598Z,31.93
2019-02-27T00:42:07.186Z,33.03
2019-02-27T00:47:08.808Z,32.17
2019-02-27T00:52:10.799Z,30.53
2019-02-27T00:57:12.495Z,33.53
2019-02-27T01:02:14.383Z,34.13
2019-02-27T01:07:20.212Z,33.83
2019-02-27T01:12:19.867Z,35.67
2019-02-27T01:17:23.855Z,30.83
2019-02-27T01:22:24.939Z,32.50
2019-02-27T01:27:26.469Z,33.90
2019-02-27T01:32:28.892Z,39.03
2019-02-27T01:37:32.342Z,38.57
2019-02-27T01:42:34.202Z,39.57
2019-02-27T01:47:36.539Z,36.93
2019-02-27T01:52:38.305Z,33.97
2019-02-27T01:57:39.891Z,36.50
2019-02-27T02:02:41.459Z,37.50
2019-02-27T02:07:45.527Z,36.77
2019-02-27T02:12:53.384Z,32.93
2019-02-27T02:18:43.171Z,35.13
2019-02-27T02:24:21.685Z,34.23
2019-02-27T02:29:52.995Z,36.83
2019-02-27T02:35:32.384Z,33.37
2019-02-27T02:40:56.947Z,33.60
2019-02-27T02:46:13.221Z,31.30
2019-02-27T02:51:32.055Z,31.67
2019-02-27T02:56:39.068Z,35.13
2019-02-27T03:01:51.908Z,34.30
2019-02-27T03:07:44.496Z,35.00
2019-02-27T03:13:20.323Z,31.67
2019-02-27T03:19:18.965Z,31.13
2019-02-27T03:25:14.918Z,34.43
2019-02-27T03:30:52.078Z,33.93
2019-02-27T03:36:16.350Z,37.83
2019-02-27T03:41:58.513Z,35.53
2019-02-27T03:47:16.729Z,32.00
2019-02-27T03:52:56.207Z,29.07
2019-02-27T03:58:38.463Z,33.47
2019-02-27T04:04:13.193Z,29.70
2019-02-27T04:09:18.532Z,29.70
2019-02-27T04:14:40.081Z,33.43
2019-02-27T04:19:40.640Z,31.83
2019-02-27T04:24:42.435Z,32.60
2019-02-27T04:29:44.080Z,36.03
2019-02-27T04:34:45.633Z,34.97
2019-02-27T04:39:47.176Z,31.53
2019-02-27T04:44:48.754Z,31.33
2019-02-27T04:49:50.323Z,27.17
2019-02-27T04:54:52.109Z,35.07
2019-02-27T04:59:53.694Z,32.80
2019-02-27T05:04:55.724Z,30.20
2019-02-27T05:09:57.687Z,31.37
2019-02-27T05:15:00.944Z,33.80
2019-02-27T05:20:03.091Z,34.57
2019-02-27T05:25:04.780Z,31.93
2019-02-27T05:30:06.692Z,32.17
2019-02-27T05:35:08.288Z,33.37
2019-02-27T05:40:10.307Z,32.90
2019-02-27T05:45:11.887Z,32.97
2019-02-27T05:50:13.796Z,32.93
2019-02-27T05:55:15.380Z,33.63
2019-02-27T06:00:17.030Z,34.90
2019-02-27T06:05:18.801Z,32.37
2019-02-27T06:10:21.137Z,29.93
2019-02-27T06:15:26.045Z,32.03
2019-02-27T06:20:27.602Z,35.03
2019-02-27T06:25:29.395Z,35.70
2019-02-27T06:30:31.405Z,31.53
2019-02-27T06:35:36.577Z,31.33
2019-02-27T06:40:42.120Z,32.63
2019-02-27T06:45:45.482Z,33.57
2019-02-27T06:50:45.261Z,34.20
2019-02-27T06:55:46.994Z,36.43
2019-02-27T07:00:48.953Z,35.07
2019-02-27T07:05:50.562Z,39.23
2019-02-27T07:10:52.129Z,36.83
2019-02-27T07:15:55.579Z,31.77
2019-02-27T07:20:58.424Z,34.20
2019-02-27T07:26:00.891Z,36.00
2019-02-27T07:31:02.538Z,32.30
2019-02-27T07:36:04.602Z,36.57
2019-02-27T07:41:06.224Z,37.30
2019-02-27T07:46:07.832Z,39.50
2019-02-27T07:51:09.426Z,38.77
2019-02-27T07:56:11.485Z,37.50
2019-02-27T08:01:13.455Z,35.27
2019-02-27T08:06:15.271Z,36.53
2019-02-27T08:11:16.842Z,37.90
2019-02-27T08:16:18.828Z,37.50
2019-02-27T08:21:20.426Z,41.23
2019-02-27T08:26:22.454Z,39.83
2019-02-27T08:31:27.890Z,35.37
2019-02-27T08:36:28.014Z,39.10
2019-02-27T08:41:31.465Z,36.97
2019-02-27T08:46:34.021Z,39.53
2019-02-27T08:51:39.788Z,36.30
2019-02-27T08:56:40.787Z,34.87
2019-02-27T09:01:42.485Z,39.83
2019-02-27T09:06:44.255Z,32.60
2019-02-27T09:11:45.830Z,33.67
2019-02-27T09:16:47.453Z,27.07
2019-02-27T09:21:49.062Z,23.87
2019-02-27T09:26:51.034Z,23.40
2019-02-27T09:31:52.699Z,31.10
2019-02-27T09:36:54.368Z,27.80
2019-02-27T09:41:55.947Z,24.53
2019-02-27T09:46:57.485Z,23.83
2019-02-27T09:51:59.086Z,24.87
2019-02-27T09:57:02.251Z,21.27
2019-02-27T10:02:06.362Z,19.83
2019-02-27T10:07:08.628Z,20.27
2019-02-27T10:12:11.311Z,19.80
2019-02-27T10:17:12.967Z,20.03
2019-02-27T10:22:17.889Z,17.23
2019-02-27T10:27:18.096Z,17.27
2019-02-27T10:32:20.061Z,19.90
2019-02-27T10:37:21.800Z,18.35
2019-02-27T10:42:23.433Z,18.20
2019-02-27T10:47:25.244Z,19.30
2019-02-27T10:52:27.206Z,20.37
2019-02-27T10:57:32.538Z,18.05
2019-02-27T11:02:32.679Z,18.10
2019-02-27T11:07:34.252Z,24.57
2019-02-27T11:12:35.915Z,20.23
2019-02-27T11:17:37.632Z,21.33
2019-02-27T11:22:39.207Z,22.37
2019-02-27T11:27:40.822Z,18.27
2019-02-27T11:32:42.405Z,19.25
2019-02-27T11:37:46.630Z,20.37
2019-02-27T11:42:47.517Z,22.50
2019-02-27T11:47:49.696Z,21.00
2019-02-27T11:52:51.393Z,22.98
2019-02-27T11:57:53.007Z,19.02
2019-02-27T12:02:54.994Z,27.95
2019-02-27T12:07:56.607Z,29.48
2019-02-27T12:13:00.727Z,20.12
2019-02-27T12:18:02.094Z,24.60
2019-02-27T12:23:03.869Z,24.65
2019-02-27T12:28:05.514Z,23.10
2019-02-27T12:33:07.122Z,28.85
2019-02-27T12:38:08.686Z,25.08
2019-02-27T12:43:10.935Z,22.85
2019-02-27T12:48:13.350Z,27.22
2019-02-27T12:53:15.001Z,24.92
2019-02-27T12:58:17.053Z,23.47
2019-02-27T13:03:18.694Z,27.80
2019-02-27T13:08:20.289Z,26.60
2019-02-27T13:13:23.277Z,31.12
2019-02-27T13:18:25.455Z,30.45
2019-02-27T13:23:27.032Z,26.95
2019-02-27T13:28:28.588Z,31.42
2019-02-27T13:33:30.131Z,26.33
2019-02-27T13:38:31.725Z,27.82
2019-02-27T13:43:33.305Z,26.97
2019-02-27T13:48:37.365Z,28.07
2019-02-27T13:53:38.353Z,24.95
2019-02-27T13:58:39.987Z,25.57
2019-02-27T14:03:41.589Z,32.40
2019-02-27T14:08:43.852Z,24.27
2019-02-27T14:13:45.580Z,27.32
2019-02-27T14:18:49.790Z,29.92
2019-02-27T14:23:50.708Z,29.23
2019-02-27T14:28:55.120Z,33.13
2019-02-27T14:33:56.157Z,33.67
2019-02-27T14:38:58.145Z,26.75
2019-02-27T14:44:02.871Z,39.45
2019-02-27T14:49:04.491Z,33.85
2019-02-27T14:54:06.107Z,37.33
2019-02-27T14:59:07.953Z,32.70
2019-02-27T15:04:09.586Z,37.88
2019-02-27T15:09:11.188Z,34.08
2019-02-27T15:14:12.846Z,35.73
2019-02-27T15:19:14.462Z,33.65
2019-02-27T15:24:16.127Z,34.48
2019-02-27T15:29:17.723Z,35.17
2019-02-27T15:34:19.340Z,33.25
2019-02-27T15:39:21.335Z,33.75
2019-02-27T15:44:22.898Z,41.02
2019-02-27T15:49:24.473Z,35.40
2019-02-27T15:54:26.090Z,37.15
2019-02-27T16:04:44.435Z,36.87
2019-02-27T16:09:46.383Z,35.40
2019-02-27T16:14:48.358Z,42.70
2019-02-27T16:19:50.447Z,42.17
2019-02-27T16:24:52.153Z,39.38
2019-02-27T16:29:54.107Z,39.78
2019-02-27T16:34:57.303Z,40.67
2019-02-27T16:39:59.048Z,37.17
2019-02-27T16:45:00.808Z,38.67
2019-02-27T16:50:02.354Z,43.63
2019-02-27T16:55:04.648Z,42.80
2019-02-27T17:00:07.088Z,40.80
2019-02-27T17:05:09.517Z,41.75
2019-02-27T17:10:14.966Z,47.10
2019-02-27T17:15:17.850Z,43.28
2019-02-27T17:20:19.574Z,44.67
2019-02-27T17:25:21.161Z,51.53
2019-02-27T17:30:27.661Z,43.87
2019-02-27T17:35:29.192Z,52.40
2019-02-27T17:40:30.747Z,44.55
2019-02-27T17:45:32.406Z,49.15
2019-02-27T17:50:33.933Z,40.92
2019-02-27T17:55:38.231Z,42.27
2019-02-27T18:00:39.249Z,43.30
2019-02-27T18:05:41.189Z,44.57
2019-02-27T18:10:42.927Z,45.90
2019-02-27T18:15:44.729Z,47.47
2019-02-27T18:20:46.976Z,46.77
2019-02-27T18:25:48.929Z,47.70
2019-02-27T18:30:53.209Z,42.80
2019-02-27T18:35:54.596Z,49.83
2019-02-27T18:40:56.628Z,45.40
2019-02-27T18:45:58.972Z,46.40
2019-02-27T18:51:01.289Z,46.20
2019-02-27T18:56:03.479Z,46.50
2019-02-27T19:01:09.520Z,45.90
2019-02-27T19:06:12.015Z,45.30
2019-02-27T19:11:12.922Z,47.97
2019-02-27T19:16:17.455Z,44.60
2019-02-27T19:21:19.907Z,47.10
2019-02-27T19:26:22.226Z,53.00
2019-02-27T19:31:24.113Z,49.10
2019-02-27T19:36:30.519Z,52.00
2019-02-27T19:41:29.447Z,53.00
2019-02-27T19:46:31.482Z,56.50
2019-02-27T19:51:33.192Z,52.33
2019-02-27T19:56:35.506Z,48.10
2019-02-27T20:01:40.466Z,51.47
2019-02-27T20:06:41.915Z,50.07
2019-02-27T20:11:43.553Z,48.70
2019-02-27T20:16:45.155Z,50.73
2019-02-27T20:21:50.554Z,53.87
2019-02-27T20:26:54.685Z,54.97
2019-02-27T20:31:58.781Z,57.57
2019-02-27T20:37:03.305Z,53.17
2019-02-27T20:42:05.740Z,57.23
2019-02-27T20:47:07.589Z,55.23
2019-02-27T20:52:14.539Z,56.27
2019-02-27T20:57:12.823Z,56.37
2019-02-27T21:02:14.763Z,52.77
2019-02-27T21:07:22.262Z,54.70
2019-02-27T21:12:19.859Z,54.00
2019-02-27T21:17:22.375Z,59.47
2019-02-27T21:22:28.389Z,61.00
2019-02-27T21:27:32.934Z,62.73
2019-02-27T21:32:36.167Z,73.57
2019-02-27T21:37:37.850Z,68.37
2019-02-27T21:42:39.547Z,75.07
2019-02-27T21:47:41.271Z,71.43
2019-02-27T21:52:42.870Z,71.17
2019-02-27T21:57:44.561Z,75.63
2019-02-27T22:02:46.223Z,68.17
2019-02-27T22:07:47.904Z,70.20
2019-02-27T22:12:49.571Z,72.40
2019-02-27T22:17:51.180Z,73.43
2019-02-27T22:22:52.753Z,74.27
2019-02-27T22:27:54.398Z,77.83
2019-02-27T22:32:56.322Z,76.00
2019-02-27T22:37:57.943Z,76.77
2019-02-27T22:42:59.517Z,76.27
2019-02-27T22:48:01.162Z,77.17
2019-02-27T22:53:02.824Z,77.40
2019-02-27T22:58:04.765Z,80.23
2019-02-27T23:03:06.407Z,80.67
2019-02-27T23:08:07.945Z,82.40
2019-02-27T23:13:12.438Z,79.63
2019-02-27T23:18:13.578Z,77.87
2019-02-27T23:23:15.156Z,74.70
2019-02-27T23:28:16.802Z,72.03
2019-02-27T23:33:18.356Z,69.13
2019-02-27T23:38:20.007Z,72.53
2019-02-27T23:43:22.208Z,75.10
2019-02-27T23:48:24.180Z,77.50
2019-02-27T23:53:27.140Z,70.27
2019-02-27T23:58:29.654Z,76.73
